sensor_id;sensor_type;location;lat;lon;timestamp;temperature;humidity
22716;DHT22;11525;51.152;4.456;2023-09-19T00:00:45;16.00;99.90
22716;DHT22;11525;51.152;4.456;2023-09-19T00:03:12;16.00;99.90
22716;DHT22;11525;51.152;4.456;2023-09-19T00:05:39;15.90;99.90
22716;DHT22;11525;51.152;4.456;2023-09-19T00:08:05;15.90;99.90
22716;DHT22;11525;51.152;4.456;2023-09-19T00:10:32;15.90;99.90
22716;DHT22;11525;51.152;4.456;2023-09-19T00:13:01;15.90;99.90
22716;DHT22;11525;51.152;4.456;2023-09-19T00:15:35;15.80;99.90
22716;DHT22;11525;51.152;4.456;2023-09-19T00:18:01;15.90;99.90
22716;DHT22;11525;51.152;4.456;2023-09-19T00:20:27;15.80;99.90
22716;DHT22;11525;51.152;4.456;2023-09-19T00:22:55;15.70;99.90
22716;DHT22;11525;51.152;4.456;2023-09-19T00:25:20;15.80;99.90
22716;DHT22;11525;51.152;4.456;2023-09-19T00:27:47;15.80;99.90
22716;DHT22;11525;51.152;4.456;2023-09-19T00:30:17;15.70;99.90
22716;DHT22;11525;51.152;4.456;2023-09-19T00:32:47;15.70;99.90
22716;DHT22;11525;51.152;4.456;2023-09-19T00:35:14;15.70;99.90
22716;DHT22;11525;51.152;4.456;2023-09-19T00:37:41;15.80;99.90
22716;DHT22;11525;51.152;4.456;2023-09-19T00:40:08;15.80;99.90
22716;DHT22;11525;51.152;4.456;2023-09-19T00:42:42;15.60;99.90
22716;DHT22;11525;51.152;4.456;2023-09-19T00:45:12;15.60;99.90
22716;DHT22;11525;51.152;4.456;2023-09-19T00:47:40;15.60;99.90
22716;DHT22;11525;51.152;4.456;2023-09-19T00:50:08;15.70;99.90
22716;DHT22;11525;51.152;4.456;2023-09-19T00:52:37;15.80;99.90
22716;DHT22;11525;51.152;4.456;2023-09-19T00:55:08;15.70;99.90
22716;DHT22;11525;51.152;4.456;2023-09-19T00:57:35;15.60;99.90
22716;DHT22;11525;51.152;4.456;2023-09-19T01:00:03;15.60;99.90
22716;DHT22;11525;51.152;4.456;2023-09-19T01:02:33;15.50;99.90
22716;DHT22;11525;51.152;4.456;2023-09-19T01:04:59;15.60;99.90
22716;DHT22;11525;51.152;4.456;2023-09-19T01:07:31;15.60;99.90
22716;DHT22;11525;51.152;4.456;2023-09-19T01:09:57;15.60;99.90
22716;DHT22;11525;51.152;4.456;2023-09-19T01:12:36;15.60;99.90
22716;DHT22;11525;51.152;4.456;2023-09-19T01:32:04;15.50;99.90
22716;DHT22;11525;51.152;4.456;2023-09-19T01:34:48;15.50;99.90
22716;DHT22;11525;51.152;4.456;2023-09-19T01:37:15;15.40;99.90
22716;DHT22;11525;51.152;4.456;2023-09-19T01:39:46;15.40;99.90
22716;DHT22;11525;51.152;4.456;2023-09-19T01:47:33;15.40;99.90
22716;DHT22;11525;51.152;4.456;2023-09-19T01:52:46;15.40;99.90
22716;DHT22;11525;51.152;4.456;2023-09-19T01:55:14;15.40;99.90
22716;DHT22;11525;51.152;4.456;2023-09-19T01:57:49;15.40;99.90
22716;DHT22;11525;51.152;4.456;2023-09-19T02:00:18;15.50;99.90
22716;DHT22;11525;51.152;4.456;2023-09-19T02:02:47;15.50;99.90
22716;DHT22;11525;51.152;4.456;2023-09-19T02:05:13;15.40;99.90
22716;DHT22;11525;51.152;4.456;2023-09-19T02:07:39;15.40;99.90
22716;DHT22;11525;51.152;4.456;2023-09-19T02:10:06;15.40;99.90
22716;DHT22;11525;51.152;4.456;2023-09-19T02:12:33;15.40;99.90
22716;DHT22;11525;51.152;4.456;2023-09-19T02:15:00;15.40;99.90
22716;DHT22;11525;51.152;4.456;2023-09-19T02:17:26;15.40;99.90
22716;DHT22;11525;51.152;4.456;2023-09-19T02:19:53;15.40;99.90
22716;DHT22;11525;51.152;4.456;2023-09-19T02:22:20;15.50;99.90
22716;DHT22;11525;51.152;4.456;2023-09-19T02:24:46;15.50;99.90
22716;DHT22;11525;51.152;4.456;2023-09-19T02:27:13;15.40;99.90
22716;DHT22;11525;51.152;4.456;2023-09-19T02:29:41;15.40;99.90
22716;DHT22;11525;51.152;4.456;2023-09-19T02:32:07;15.40;99.90
22716;DHT22;11525;51.152;4.456;2023-09-19T02:34:35;15.40;99.90
22716;DHT22;11525;51.152;4.456;2023-09-19T02:37:05;15.40;99.90
22716;DHT22;11525;51.152;4.456;2023-09-19T02:39:32;15.50;99.90
22716;DHT22;11525;51.152;4.456;2023-09-19T02:41:57;15.50;99.90
22716;DHT22;11525;51.152;4.456;2023-09-19T02:44:23;15.60;99.90
22716;DHT22;11525;51.152;4.456;2023-09-19T02:46:49;15.50;99.90
22716;DHT22;11525;51.152;4.456;2023-09-19T02:49:15;15.50;99.90
22716;DHT22;11525;51.152;4.456;2023-09-19T02:51:43;15.60;99.90
22716;DHT22;11525;51.152;4.456;2023-09-19T02:54:09;15.70;99.90
22716;DHT22;11525;51.152;4.456;2023-09-19T02:56:35;15.70;99.90
22716;DHT22;11525;51.152;4.456;2023-09-19T02:59:01;15.70;99.90
22716;DHT22;11525;51.152;4.456;2023-09-19T03:01:27;15.70;99.90
22716;DHT22;11525;51.152;4.456;2023-09-19T03:03:55;15.70;99.90
22716;DHT22;11525;51.152;4.456;2023-09-19T03:06:21;15.70;99.90
22716;DHT22;11525;51.152;4.456;2023-09-19T03:08:49;15.80;99.90
22716;DHT22;11525;51.152;4.456;2023-09-19T03:11:17;15.80;99.90
22716;DHT22;11525;51.152;4.456;2023-09-19T03:13:53;15.80;99.90
22716;DHT22;11525;51.152;4.456;2023-09-19T03:16:19;15.80;99.90
22716;DHT22;11525;51.152;4.456;2023-09-19T03:18:48;15.90;99.90
22716;DHT22;11525;51.152;4.456;2023-09-19T03:21:15;16.00;99.90
22716;DHT22;11525;51.152;4.456;2023-09-19T03:23:42;16.10;99.90
22716;DHT22;11525;51.152;4.456;2023-09-19T03:26:11;16.30;99.90
22716;DHT22;11525;51.152;4.456;2023-09-19T03:28:38;16.10;99.90
22716;DHT22;11525;51.152;4.456;2023-09-19T03:31:05;16.20;99.90
22716;DHT22;11525;51.152;4.456;2023-09-19T03:33:32;16.10;99.90
22716;DHT22;11525;51.152;4.456;2023-09-19T03:36:00;16.20;99.90
22716;DHT22;11525;51.152;4.456;2023-09-19T03:38:26;16.20;99.90
22716;DHT22;11525;51.152;4.456;2023-09-19T03:40:53;16.20;99.90
22716;DHT22;11525;51.152;4.456;2023-09-19T03:43:19;16.10;99.90
22716;DHT22;11525;51.152;4.456;2023-09-19T03:45:44;16.00;99.90
22716;DHT22;11525;51.152;4.456;2023-09-19T03:48:12;16.20;99.90
22716;DHT22;11525;51.152;4.456;2023-09-19T03:50:39;16.20;99.90
22716;DHT22;11525;51.152;4.456;2023-09-19T03:53:05;16.20;99.90
22716;DHT22;11525;51.152;4.456;2023-09-19T03:55:33;16.10;99.90
22716;DHT22;11525;51.152;4.456;2023-09-19T03:58:01;15.90;99.90
22716;DHT22;11525;51.152;4.456;2023-09-19T04:00:27;15.80;99.90
22716;DHT22;11525;51.152;4.456;2023-09-19T04:02:55;15.80;99.90
22716;DHT22;11525;51.152;4.456;2023-09-19T04:05:22;15.80;99.90
22716;DHT22;11525;51.152;4.456;2023-09-19T04:07:48;15.80;99.90
22716;DHT22;11525;51.152;4.456;2023-09-19T04:10:14;15.80;99.90
22716;DHT22;11525;51.152;4.456;2023-09-19T04:12:40;15.70;99.90
22716;DHT22;11525;51.152;4.456;2023-09-19T04:15:06;15.70;99.90
22716;DHT22;11525;51.152;4.456;2023-09-19T04:17:32;15.60;99.90
22716;DHT22;11525;51.152;4.456;2023-09-19T04:19:59;15.70;99.90
22716;DHT22;11525;51.152;4.456;2023-09-19T04:22:25;15.70;99.90
22716;DHT22;11525;51.152;4.456;2023-09-19T04:24:51;15.80;99.90
22716;DHT22;11525;51.152;4.456;2023-09-19T04:27:16;15.80;99.90
22716;DHT22;11525;51.152;4.456;2023-09-19T04:29:42;15.70;99.90
22716;DHT22;11525;51.152;4.456;2023-09-19T04:32:08;15.60;99.90
22716;DHT22;11525;51.152;4.456;2023-09-19T04:34:35;15.50;99.90
22716;DHT22;11525;51.152;4.456;2023-09-19T04:37:01;15.50;99.90
22716;DHT22;11525;51.152;4.456;2023-09-19T04:39:27;15.40;99.90
22716;DHT22;11525;51.152;4.456;2023-09-19T04:41:54;15.40;99.90
22716;DHT22;11525;51.152;4.456;2023-09-19T04:44:20;15.50;99.90
22716;DHT22;11525;51.152;4.456;2023-09-19T04:46:46;15.30;99.90
22716;DHT22;11525;51.152;4.456;2023-09-19T04:49:12;15.20;99.90
22716;DHT22;11525;51.152;4.456;2023-09-19T04:51:39;15.10;99.90
22716;DHT22;11525;51.152;4.456;2023-09-19T04:54:06;15.00;99.90
22716;DHT22;11525;51.152;4.456;2023-09-19T04:56:32;15.10;99.90
22716;DHT22;11525;51.152;4.456;2023-09-19T04:58:59;15.10;99.90
22716;DHT22;11525;51.152;4.456;2023-09-19T05:01:25;15.10;99.90
22716;DHT22;11525;51.152;4.456;2023-09-19T05:03:51;15.20;99.90
22716;DHT22;11525;51.152;4.456;2023-09-19T05:06:20;15.10;99.90
22716;DHT22;11525;51.152;4.456;2023-09-19T05:08:47;15.00;99.90
22716;DHT22;11525;51.152;4.456;2023-09-19T05:11:19;15.50;99.90
22716;DHT22;11525;51.152;4.456;2023-09-19T05:13:49;15.60;99.90
22716;DHT22;11525;51.152;4.456;2023-09-19T05:16:18;15.40;99.90
22716;DHT22;11525;51.152;4.456;2023-09-19T05:18:44;15.30;99.90
22716;DHT22;11525;51.152;4.456;2023-09-19T05:21:10;15.20;99.90
22716;DHT22;11525;51.152;4.456;2023-09-19T05:23:36;15.30;99.90
22716;DHT22;11525;51.152;4.456;2023-09-19T05:26:02;15.40;99.90
22716;DHT22;11525;51.152;4.456;2023-09-19T05:28:30;15.30;99.90
22716;DHT22;11525;51.152;4.456;2023-09-19T05:31:02;15.30;99.90
22716;DHT22;11525;51.152;4.456;2023-09-19T05:33:28;15.10;99.90
22716;DHT22;11525;51.152;4.456;2023-09-19T05:35:54;15.20;99.90
22716;DHT22;11525;51.152;4.456;2023-09-19T05:38:21;15.10;99.90
22716;DHT22;11525;51.152;4.456;2023-09-19T05:40:48;15.10;99.90
22716;DHT22;11525;51.152;4.456;2023-09-19T05:43:13;15.20;99.90
22716;DHT22;11525;51.152;4.456;2023-09-19T05:45:42;15.10;99.90
22716;DHT22;11525;51.152;4.456;2023-09-19T05:48:12;15.00;99.90
22716;DHT22;11525;51.152;4.456;2023-09-19T05:50:40;15.10;99.90
22716;DHT22;11525;51.152;4.456;2023-09-19T05:53:06;15.10;99.90
22716;DHT22;11525;51.152;4.456;2023-09-19T05:55:32;15.20;99.90
22716;DHT22;11525;51.152;4.456;2023-09-19T05:57:58;15.20;99.90
22716;DHT22;11525;51.152;4.456;2023-09-19T06:00:25;15.20;99.90
22716;DHT22;11525;51.152;4.456;2023-09-19T06:02:53;15.30;99.90
22716;DHT22;11525;51.152;4.456;2023-09-19T06:05:20;15.30;99.90
22716;DHT22;11525;51.152;4.456;2023-09-19T06:07:45;15.40;99.90
22716;DHT22;11525;51.152;4.456;2023-09-19T06:10:12;15.40;99.90
22716;DHT22;11525;51.152;4.456;2023-09-19T06:12:44;15.50;99.90
22716;DHT22;11525;51.152;4.456;2023-09-19T06:15:12;15.50;99.90
22716;DHT22;11525;51.152;4.456;2023-09-19T06:20:14;15.60;99.90
22716;DHT22;11525;51.152;4.456;2023-09-19T06:22:45;15.70;99.90
22716;DHT22;11525;51.152;4.456;2023-09-19T06:25:12;15.80;99.90
22716;DHT22;11525;51.152;4.456;2023-09-19T06:27:41;16.30;99.90
22716;DHT22;11525;51.152;4.456;2023-09-19T06:30:08;16.70;99.90
22716;DHT22;11525;51.152;4.456;2023-09-19T06:32:34;16.80;99.90
22716;DHT22;11525;51.152;4.456;2023-09-19T06:35:00;16.60;99.90
22716;DHT22;11525;51.152;4.456;2023-09-19T06:37:30;16.60;99.90
22716;DHT22;11525;51.152;4.456;2023-09-19T06:39:55;16.60;99.90
22716;DHT22;11525;51.152;4.456;2023-09-19T06:42:22;16.60;99.90
22716;DHT22;11525;51.152;4.456;2023-09-19T06:44:49;16.70;99.90
22716;DHT22;11525;51.152;4.456;2023-09-19T06:47:14;16.70;99.90
22716;DHT22;11525;51.152;4.456;2023-09-19T06:49:41;16.80;99.90
22716;DHT22;11525;51.152;4.456;2023-09-19T06:52:09;16.90;99.90
22716;DHT22;11525;51.152;4.456;2023-09-19T06:54:35;17.10;99.90
22716;DHT22;11525;51.152;4.456;2023-09-19T06:57:01;17.10;99.90
22716;DHT22;11525;51.152;4.456;2023-09-19T06:59:27;17.10;99.90
22716;DHT22;11525;51.152;4.456;2023-09-19T07:01:53;17.00;99.90
22716;DHT22;11525;51.152;4.456;2023-09-19T07:04:18;17.00;99.90
22716;DHT22;11525;51.152;4.456;2023-09-19T07:06:50;17.20;99.90
22716;DHT22;11525;51.152;4.456;2023-09-19T07:09:16;17.20;99.90
22716;DHT22;11525;51.152;4.456;2023-09-19T07:11:42;17.30;99.90
22716;DHT22;11525;51.152;4.456;2023-09-19T07:14:08;17.40;99.90
22716;DHT22;11525;51.152;4.456;2023-09-19T07:16:40;17.40;99.90
22716;DHT22;11525;51.152;4.456;2023-09-19T07:19:08;17.60;99.90
22716;DHT22;11525;51.152;4.456;2023-09-19T07:21:33;17.60;99.90
22716;DHT22;11525;51.152;4.456;2023-09-19T07:24:01;17.50;99.90
22716;DHT22;11525;51.152;4.456;2023-09-19T07:26:28;17.50;99.90
22716;DHT22;11525;51.152;4.456;2023-09-19T07:28:54;17.70;99.90
22716;DHT22;11525;51.152;4.456;2023-09-19T07:31:19;17.90;99.90
22716;DHT22;11525;51.152;4.456;2023-09-19T07:33:45;17.90;99.90
22716;DHT22;11525;51.152;4.456;2023-09-19T07:36:11;18.10;99.90
22716;DHT22;11525;51.152;4.456;2023-09-19T07:38:42;18.00;99.90
22716;DHT22;11525;51.152;4.456;2023-09-19T07:41:08;17.80;99.90
22716;DHT22;11525;51.152;4.456;2023-09-19T07:43:35;17.80;99.90
22716;DHT22;11525;51.152;4.456;2023-09-19T07:46:05;17.70;99.90
22716;DHT22;11525;51.152;4.456;2023-09-19T07:48:33;18.00;99.90
22716;DHT22;11525;51.152;4.456;2023-09-19T07:51:03;18.30;99.90
22716;DHT22;11525;51.152;4.456;2023-09-19T07:53:29;18.30;99.90
22716;DHT22;11525;51.152;4.456;2023-09-19T07:56:02;18.20;99.90
22716;DHT22;11525;51.152;4.456;2023-09-19T07:58:29;18.40;99.90
22716;DHT22;11525;51.152;4.456;2023-09-19T08:00:55;18.70;99.90
22716;DHT22;11525;51.152;4.456;2023-09-19T08:03:20;18.70;99.90
22716;DHT22;11525;51.152;4.456;2023-09-19T08:05:46;18.80;99.90
22716;DHT22;11525;51.152;4.456;2023-09-19T08:08:13;18.80;99.90
22716;DHT22;11525;51.152;4.456;2023-09-19T08:10:40;19.10;99.90
22716;DHT22;11525;51.152;4.456;2023-09-19T08:13:07;19.50;99.90
22716;DHT22;11525;51.152;4.456;2023-09-19T08:15:37;19.80;99.90
22716;DHT22;11525;51.152;4.456;2023-09-19T08:18:09;20.10;99.90
22716;DHT22;11525;51.152;4.456;2023-09-19T08:20:37;20.60;99.90
22716;DHT22;11525;51.152;4.456;2023-09-19T08:23:03;20.80;99.90
22716;DHT22;11525;51.152;4.456;2023-09-19T08:25:29;21.50;99.90
22716;DHT22;11525;51.152;4.456;2023-09-19T08:27:55;22.20;99.90
22716;DHT22;11525;51.152;4.456;2023-09-19T08:30:26;22.70;99.90
22716;DHT22;11525;51.152;4.456;2023-09-19T08:33:02;23.20;99.90
22716;DHT22;11525;51.152;4.456;2023-09-19T08:35:31;23.70;99.90
22716;DHT22;11525;51.152;4.456;2023-09-19T08:37:56;24.30;99.90
22716;DHT22;11525;51.152;4.456;2023-09-19T08:40:23;24.50;99.90
22716;DHT22;11525;51.152;4.456;2023-09-19T08:42:55;24.50;99.90
22716;DHT22;11525;51.152;4.456;2023-09-19T08:45:24;24.60;99.90
22716;DHT22;11525;51.152;4.456;2023-09-19T08:50:51;24.80;99.90
22716;DHT22;11525;51.152;4.456;2023-09-19T08:53:42;24.80;99.60
22716;DHT22;11525;51.152;4.456;2023-09-19T08:56:12;25.00;99.90
22716;DHT22;11525;51.152;4.456;2023-09-19T08:58:50;24.40;99.90
22716;DHT22;11525;51.152;4.456;2023-09-19T09:01:18;24.30;99.90
22716;DHT22;11525;51.152;4.456;2023-09-19T09:03:52;23.80;99.90
22716;DHT22;11525;51.152;4.456;2023-09-19T09:06:20;23.50;99.90
22716;DHT22;11525;51.152;4.456;2023-09-19T09:08:46;23.20;99.90
22716;DHT22;11525;51.152;4.456;2023-09-19T09:11:15;22.90;99.90
22716;DHT22;11525;51.152;4.456;2023-09-19T09:13:43;22.90;99.90
22716;DHT22;11525;51.152;4.456;2023-09-19T09:16:10;22.60;99.90
22716;DHT22;11525;51.152;4.456;2023-09-19T09:18:36;22.40;99.90
22716;DHT22;11525;51.152;4.456;2023-09-19T09:21:03;22.10;99.90
22716;DHT22;11525;51.152;4.456;2023-09-19T09:23:30;22.20;99.90
22716;DHT22;11525;51.152;4.456;2023-09-19T09:25:58;22.10;99.90
22716;DHT22;11525;51.152;4.456;2023-09-19T09:28:28;21.90;99.90
22716;DHT22;11525;51.152;4.456;2023-09-19T09:30:54;22.00;99.90
22716;DHT22;11525;51.152;4.456;2023-09-19T09:33:20;22.10;99.90
22716;DHT22;11525;51.152;4.456;2023-09-19T09:35:59;21.80;99.90
22716;DHT22;11525;51.152;4.456;2023-09-19T09:38:45;22.50;99.90
22716;DHT22;11525;51.152;4.456;2023-09-19T09:41:11;22.70;99.90
22716;DHT22;11525;51.152;4.456;2023-09-19T09:43:41;22.80;99.90
22716;DHT22;11525;51.152;4.456;2023-09-19T09:46:16;23.10;99.90
22716;DHT22;11525;51.152;4.456;2023-09-19T09:49:02;23.40;99.90
22716;DHT22;11525;51.152;4.456;2023-09-19T09:51:48;24.00;99.90
22716;DHT22;11525;51.152;4.456;2023-09-19T09:54:23;24.30;97.80
22716;DHT22;11525;51.152;4.456;2023-09-19T09:56:57;24.30;97.00
22716;DHT22;11525;51.152;4.456;2023-09-19T09:59:47;25.60;93.60
22716;DHT22;11525;51.152;4.456;2023-09-19T10:02:30;25.80;91.30
22716;DHT22;11525;51.152;4.456;2023-09-19T10:05:20;25.90;91.00
22716;DHT22;11525;51.152;4.456;2023-09-19T10:07:47;27.20;88.70
22716;DHT22;11525;51.152;4.456;2023-09-19T10:10:15;27.30;83.60
22716;DHT22;11525;51.152;4.456;2023-09-19T10:12:57;27.90;78.60
22716;DHT22;11525;51.152;4.456;2023-09-19T10:15:32;28.30;72.30
22716;DHT22;11525;51.152;4.456;2023-09-19T10:18:01;28.40;72.00
22716;DHT22;11525;51.152;4.456;2023-09-19T10:20:28;28.40;72.90
22716;DHT22;11525;51.152;4.456;2023-09-19T10:23:09;28.50;71.20
22716;DHT22;11525;51.152;4.456;2023-09-19T10:25:40;28.50;71.70
22716;DHT22;11525;51.152;4.456;2023-09-19T10:28:10;28.70;69.70
22716;DHT22;11525;51.152;4.456;2023-09-19T10:30:46;28.80;68.60
22716;DHT22;11525;51.152;4.456;2023-09-19T10:33:18;29.00;68.00
22716;DHT22;11525;51.152;4.456;2023-09-19T10:35:48;28.80;69.10
22716;DHT22;11525;51.152;4.456;2023-09-19T10:38:17;29.10;67.40
22716;DHT22;11525;51.152;4.456;2023-09-19T10:40:44;28.60;67.60
22716;DHT22;11525;51.152;4.456;2023-09-19T10:43:16;28.50;66.90
22716;DHT22;11525;51.152;4.456;2023-09-19T10:45:45;27.50;72.40
22716;DHT22;11525;51.152;4.456;2023-09-19T10:48:18;26.30;78.40
22716;DHT22;11525;51.152;4.456;2023-09-19T10:50:57;25.00;87.90
22716;DHT22;11525;51.152;4.456;2023-09-19T10:53:26;24.30;91.00
22716;DHT22;11525;51.152;4.456;2023-09-19T10:55:56;23.80;93.80
22716;DHT22;11525;51.152;4.456;2023-09-19T10:58:32;23.30;96.10
22716;DHT22;11525;51.152;4.456;2023-09-19T11:01:00;23.20;98.60
22716;DHT22;11525;51.152;4.456;2023-09-19T11:03:37;23.10;98.80
22716;DHT22;11525;51.152;4.456;2023-09-19T11:06:15;23.00;98.90
22716;DHT22;11525;51.152;4.456;2023-09-19T11:08:53;22.80;99.90
22716;DHT22;11525;51.152;4.456;2023-09-19T11:11:41;22.70;99.90
22716;DHT22;11525;51.152;4.456;2023-09-19T11:14:28;22.60;99.90
22716;DHT22;11525;51.152;4.456;2023-09-19T11:30:38;22.00;99.90
22716;DHT22;11525;51.152;4.456;2023-09-19T11:33:20;22.10;99.90
22716;DHT22;11525;51.152;4.456;2023-09-19T11:46:52;22.40;99.90
22716;DHT22;11525;51.152;4.456;2023-09-19T11:49:26;22.40;99.90
22716;DHT22;11525;51.152;4.456;2023-09-19T11:51:56;22.50;99.90
22716;DHT22;11525;51.152;4.456;2023-09-19T11:54:23;22.60;99.90
22716;DHT22;11525;51.152;4.456;2023-09-19T11:56:50;22.50;99.90
22716;DHT22;11525;51.152;4.456;2023-09-19T11:59:23;22.30;99.90
22716;DHT22;11525;51.152;4.456;2023-09-19T12:01:57;22.40;99.90
22716;DHT22;11525;51.152;4.456;2023-09-19T12:04:42;22.40;99.90
22716;DHT22;11525;51.152;4.456;2023-09-19T12:07:14;22.50;99.90
22716;DHT22;11525;51.152;4.456;2023-09-19T12:12:26;22.10;99.90
22716;DHT22;11525;51.152;4.456;2023-09-19T12:15:01;22.10;99.90
22716;DHT22;11525;51.152;4.456;2023-09-19T12:17:38;22.00;99.90
22716;DHT22;11525;51.152;4.456;2023-09-19T12:20:06;21.90;99.90
22716;DHT22;11525;51.152;4.456;2023-09-19T12:22:40;22.00;99.90
22716;DHT22;11525;51.152;4.456;2023-09-19T12:25:06;22.10;99.90
22716;DHT22;11525;51.152;4.456;2023-09-19T12:27:50;22.30;99.90
22716;DHT22;11525;51.152;4.456;2023-09-19T12:30:19;22.60;99.90
22716;DHT22;11525;51.152;4.456;2023-09-19T12:32:46;22.60;99.90
22716;DHT22;11525;51.152;4.456;2023-09-19T12:35:31;22.60;99.90
22716;DHT22;11525;51.152;4.456;2023-09-19T12:38:01;22.50;99.90
22716;DHT22;11525;51.152;4.456;2023-09-19T12:40:26;22.40;99.90
22716;DHT22;11525;51.152;4.456;2023-09-19T12:42:59;22.30;99.90
22716;DHT22;11525;51.152;4.456;2023-09-19T12:45:26;21.90;99.90
22716;DHT22;11525;51.152;4.456;2023-09-19T12:48:20;21.80;99.90
22716;DHT22;11525;51.152;4.456;2023-09-19T12:53:39;21.60;99.90
22716;DHT22;11525;51.152;4.456;2023-09-19T12:56:15;21.50;99.90
22716;DHT22;11525;51.152;4.456;2023-09-19T12:58:57;21.90;99.90
22716;DHT22;11525;51.152;4.456;2023-09-19T13:01:29;22.00;99.90
22716;DHT22;11525;51.152;4.456;2023-09-19T13:04:30;22.10;99.90
22716;DHT22;11525;51.152;4.456;2023-09-19T13:06:58;22.20;99.90
22716;DHT22;11525;51.152;4.456;2023-09-19T13:09:27;22.10;99.90
22716;DHT22;11525;51.152;4.456;2023-09-19T13:12:00;22.30;99.90
22716;DHT22;11525;51.152;4.456;2023-09-19T13:14:28;22.30;99.90
22716;DHT22;11525;51.152;4.456;2023-09-19T13:17:09;22.40;99.90
22716;DHT22;11525;51.152;4.456;2023-09-19T13:19:50;22.60;99.90
22716;DHT22;11525;51.152;4.456;2023-09-19T13:22:42;22.60;99.90
22716;DHT22;11525;51.152;4.456;2023-09-19T13:25:13;22.20;99.90
22716;DHT22;11525;51.152;4.456;2023-09-19T13:27:47;21.90;99.90
22716;DHT22;11525;51.152;4.456;2023-09-19T13:30:16;21.70;99.90
22716;DHT22;11525;51.152;4.456;2023-09-19T13:32:42;22.00;99.90
22716;DHT22;11525;51.152;4.456;2023-09-19T13:35:09;21.90;99.90
22716;DHT22;11525;51.152;4.456;2023-09-19T13:37:37;21.90;99.90
22716;DHT22;11525;51.152;4.456;2023-09-19T13:40:10;22.00;99.90
22716;DHT22;11525;51.152;4.456;2023-09-19T13:42:36;22.30;99.90
22716;DHT22;11525;51.152;4.456;2023-09-19T13:45:06;22.20;99.90
22716;DHT22;11525;51.152;4.456;2023-09-19T13:47:37;22.10;99.90
22716;DHT22;11525;51.152;4.456;2023-09-19T13:50:04;22.20;99.90
22716;DHT22;11525;51.152;4.456;2023-09-19T13:52:31;22.20;99.90
22716;DHT22;11525;51.152;4.456;2023-09-19T13:54:57;22.40;99.90
22716;DHT22;11525;51.152;4.456;2023-09-19T13:57:24;22.50;99.90
22716;DHT22;11525;51.152;4.456;2023-09-19T13:59:50;22.60;99.90
22716;DHT22;11525;51.152;4.456;2023-09-19T14:02:17;22.70;99.90
22716;DHT22;11525;51.152;4.456;2023-09-19T14:04:44;22.90;99.90
22716;DHT22;11525;51.152;4.456;2023-09-19T14:07:10;22.70;99.90
22716;DHT22;11525;51.152;4.456;2023-09-19T14:09:36;22.70;99.90
22716;DHT22;11525;51.152;4.456;2023-09-19T14:12:02;22.70;99.90
22716;DHT22;11525;51.152;4.456;2023-09-19T14:14:28;22.60;99.90
22716;DHT22;11525;51.152;4.456;2023-09-19T14:16:53;22.90;99.90
22716;DHT22;11525;51.152;4.456;2023-09-19T14:19:20;23.10;99.90
22716;DHT22;11525;51.152;4.456;2023-09-19T14:21:46;22.90;99.90
22716;DHT22;11525;51.152;4.456;2023-09-19T14:24:17;22.80;99.90
22716;DHT22;11525;51.152;4.456;2023-09-19T14:26:43;22.60;99.90
22716;DHT22;11525;51.152;4.456;2023-09-19T14:29:09;22.40;99.90
22716;DHT22;11525;51.152;4.456;2023-09-19T14:31:37;22.50;99.90
22716;DHT22;11525;51.152;4.456;2023-09-19T14:34:03;22.40;99.90
22716;DHT22;11525;51.152;4.456;2023-09-19T14:36:30;22.30;99.90
22716;DHT22;11525;51.152;4.456;2023-09-19T14:38:56;22.40;99.90
22716;DHT22;11525;51.152;4.456;2023-09-19T14:41:23;22.50;99.90
22716;DHT22;11525;51.152;4.456;2023-09-19T14:43:51;22.30;99.90
22716;DHT22;11525;51.152;4.456;2023-09-19T14:46:17;22.50;99.90
22716;DHT22;11525;51.152;4.456;2023-09-19T14:48:45;22.50;99.90
22716;DHT22;11525;51.152;4.456;2023-09-19T14:51:14;22.40;99.90
22716;DHT22;11525;51.152;4.456;2023-09-19T14:53:40;22.30;99.90
22716;DHT22;11525;51.152;4.456;2023-09-19T14:56:10;22.40;99.90
22716;DHT22;11525;51.152;4.456;2023-09-19T14:58:37;22.50;99.90
22716;DHT22;11525;51.152;4.456;2023-09-19T15:01:08;22.30;99.90
22716;DHT22;11525;51.152;4.456;2023-09-19T15:03:36;22.30;99.90
22716;DHT22;11525;51.152;4.456;2023-09-19T15:06:03;22.20;99.90
22716;DHT22;11525;51.152;4.456;2023-09-19T15:08:33;22.00;99.90
22716;DHT22;11525;51.152;4.456;2023-09-19T15:11:07;21.70;99.90
22716;DHT22;11525;51.152;4.456;2023-09-19T15:13:33;21.60;99.90
22716;DHT22;11525;51.152;4.456;2023-09-19T15:16:03;21.50;99.90
22716;DHT22;11525;51.152;4.456;2023-09-19T15:18:30;21.50;99.90
22716;DHT22;11525;51.152;4.456;2023-09-19T15:21:02;21.40;99.90
22716;DHT22;11525;51.152;4.456;2023-09-19T15:23:29;21.30;99.90
22716;DHT22;11525;51.152;4.456;2023-09-19T15:25:57;21.20;99.90
22716;DHT22;11525;51.152;4.456;2023-09-19T15:28:22;21.20;99.90
22716;DHT22;11525;51.152;4.456;2023-09-19T15:30:49;21.30;99.90
22716;DHT22;11525;51.152;4.456;2023-09-19T15:33:15;21.30;99.90
22716;DHT22;11525;51.152;4.456;2023-09-19T15:35:41;21.20;99.90
22716;DHT22;11525;51.152;4.456;2023-09-19T15:38:07;21.30;99.90
22716;DHT22;11525;51.152;4.456;2023-09-19T15:40:33;21.30;99.90
22716;DHT22;11525;51.152;4.456;2023-09-19T15:42:59;21.40;99.90
22716;DHT22;11525;51.152;4.456;2023-09-19T15:45:25;21.50;99.90
22716;DHT22;11525;51.152;4.456;2023-09-19T15:47:52;21.60;99.90
22716;DHT22;11525;51.152;4.456;2023-09-19T15:50:18;21.60;99.90
22716;DHT22;11525;51.152;4.456;2023-09-19T15:52:44;21.40;99.90
22716;DHT22;11525;51.152;4.456;2023-09-19T15:55:10;21.30;99.90
22716;DHT22;11525;51.152;4.456;2023-09-19T15:57:37;21.30;99.90
22716;DHT22;11525;51.152;4.456;2023-09-19T16:00:04;21.30;99.90
22716;DHT22;11525;51.152;4.456;2023-09-19T16:02:35;21.10;99.90
22716;DHT22;11525;51.152;4.456;2023-09-19T16:05:01;21.00;99.90
22716;DHT22;11525;51.152;4.456;2023-09-19T16:07:32;21.00;99.90
22716;DHT22;11525;51.152;4.456;2023-09-19T16:09:59;21.10;99.90
22716;DHT22;11525;51.152;4.456;2023-09-19T16:12:25;21.10;99.90
22716;DHT22;11525;51.152;4.456;2023-09-19T16:14:51;20.90;99.90
22716;DHT22;11525;51.152;4.456;2023-09-19T16:17:17;20.90;99.90
22716;DHT22;11525;51.152;4.456;2023-09-19T16:19:43;20.80;99.90
22716;DHT22;11525;51.152;4.456;2023-09-19T16:22:09;20.70;99.90
22716;DHT22;11525;51.152;4.456;2023-09-19T16:24:35;20.70;99.90
22716;DHT22;11525;51.152;4.456;2023-09-19T16:27:01;20.50;99.90
22716;DHT22;11525;51.152;4.456;2023-09-19T16:29:26;20.60;99.90
22716;DHT22;11525;51.152;4.456;2023-09-19T16:31:52;20.60;99.90
22716;DHT22;11525;51.152;4.456;2023-09-19T16:34:18;20.50;99.90
22716;DHT22;11525;51.152;4.456;2023-09-19T16:36:44;20.40;99.90
22716;DHT22;11525;51.152;4.456;2023-09-19T16:39:11;20.50;99.90
22716;DHT22;11525;51.152;4.456;2023-09-19T16:41:37;20.50;99.90